Time;durP1;ratioP1;P1;durP2;ratioP2;P2;SDS_P1;SDS_P2;PMS_P1;PMS_P2;Temp;Humidity;BMP_temperature;BMP_pressure;BME280_temperature;BME280_humidity;BME280_pressure;Samples;Min_cycle;Max_cycle;Signal;HPM_P1;HPM_P2
2022/06/17 00:01:26;;;;;;;11.15;6.08;;;;;;;18.34;55.26;99836.05;1700480;82;22722;-78
2022/06/17 00:03:53;;;;;;;9.15;6.75;;;;;;;18.26;55.42;99842.98;1688305;83;20890;-76
2022/06/17 00:06:24;;;;;;;9.90;6.30;;;;;;;18.19;55.58;99840.63;1667525;84;21028;-71
2022/06/17 00:08:52;;;;;;;12.37;6.05;;;;;;;18.15;55.56;99842.33;1666217;84;21656;-76
2022/06/17 00:11:35;;;;;;;10.10;5.58;;;;;;;18.13;55.48;99838.30;1669576;84;21080;-75
2022/06/17 00:14:03;;;;;;;10.85;6.12;;;;;;;18.11;55.44;99839.13;1709783;83;21259;-74
2022/06/17 00:16:30;;;;;;;7.92;6.03;;;;;;;18.08;55.38;99839.73;1715735;82;20936;-72
2022/06/17 00:18:58;;;;;;;10.93;7.17;;;;;;;18.06;55.55;99843.29;1716665;81;21058;-75
2022/06/17 00:21:31;;;;;;;12.00;6.55;;;;;;;18.03;55.61;99840.63;1716052;82;21546;-77
2022/06/17 00:23:59;;;;;;;9.30;6.40;;;;;;;18.01;55.48;99843.37;1699322;84;21035;-78
2022/06/17 00:26:25;;;;;;;10.75;8.80;;;;;;;17.85;56.32;99838.14;1699293;83;21155;-78
2022/06/17 00:28:52;;;;;;;12.60;9.93;;;;;;;17.57;58.36;99840.41;1699263;84;21030;-77
2022/06/17 00:31:19;;;;;;;12.63;9.48;;;;;;;17.28;59.42;99843.77;1673545;84;21544;-76
2022/06/17 00:33:46;;;;;;;14.18;8.95;;;;;;;17.04;60.46;99846.48;1687525;84;21048;-76
2022/06/17 00:36:17;;;;;;;10.75;7.65;;;;;;;16.98;60.16;99845.72;1676133;83;20993;-75
2022/06/17 00:38:44;;;;;;;8.88;8.00;;;;;;;17.03;60.03;99839.42;1638057;86;21171;-75
2022/06/17 00:41:30;;;;;;;12.82;8.05;;;;;;;17.06;60.43;99841.58;1657198;86;21079;-76
2022/06/17 00:43:59;;;;;;;10.85;6.78;;;;;;;17.08;60.70;99837.20;1680551;84;21029;-75
2022/06/17 00:46:57;;;;;;;9.73;7.50;;;;;;;17.11;60.89;99837.99;1668203;84;21001;-72
2022/06/17 00:49:47;;;;;;;8.80;7.78;;;;;;;16.98;61.82;99838.93;1682524;84;21040;-72
2022/06/17 00:52:39;;;;;;;8.80;6.65;;;;;;;16.65;63.11;99833.56;1684901;84;21416;-71
2022/06/17 00:55:24;;;;;;;6.85;6.25;;;;;;;16.38;63.98;99833.52;1724331;81;21598;-74
2022/06/17 00:57:50;;;;;;;6.72;6.03;;;;;;;16.22;64.29;99832.55;1726083;82;21683;-73
2022/06/17 01:00:21;;;;;;;7.12;5.55;;;;;;;16.13;64.51;99826.92;1732267;82;21475;-76
2022/06/17 01:02:55;;;;;;;10.15;5.28;;;;;;;16.01;64.99;99821.05;1693811;83;21050;-72
2022/06/17 01:05:31;;;;;;;8.13;4.97;;;;;;;16.06;64.44;99823.73;1683865;85;21335;-73
2022/06/17 01:11:18;;;;;;;6.45;4.62;;;;;;;16.16;64.14;99822.30;1680790;84;21307;-73
2022/06/17 01:13:47;;;;;;;9.08;4.60;;;;;;;16.24;63.89;99824.95;1697722;83;21012;-72
2022/06/17 01:16:13;;;;;;;5.80;3.98;;;;;;;16.29;63.71;99827.08;1701833;82;21060;-72
2022/06/17 01:18:43;;;;;;;6.05;4.97;;;;;;;16.27;64.35;99828.44;1702404;83;20972;-72
2022/06/17 01:21:34;;;;;;;6.72;4.42;;;;;;;16.09;64.88;99830.75;1701808;83;21023;-73
2022/06/17 01:24:01;;;;;;;7.62;5.55;;;;;;;15.89;65.61;99821.39;1702291;83;21771;-73
2022/06/17 01:26:29;;;;;;;7.20;5.65;;;;;;;15.74;66.20;99817.95;1698519;82;21092;-74
2022/06/17 01:28:56;;;;;;;8.20;4.80;;;;;;;15.78;65.65;99826.61;1701772;84;21097;-72
2022/06/17 01:31:23;;;;;;;5.35;4.42;;;;;;;15.87;65.70;99826.30;1701174;83;21427;-73
2022/06/17 01:33:50;;;;;;;6.55;4.15;;;;;;;15.92;65.69;99824.11;1684229;82;21053;-76
2022/06/17 01:36:27;;;;;;;5.95;4.90;;;;;;;15.95;65.51;99827.05;1674885;84;21492;-73
2022/06/17 01:38:56;;;;;;;7.37;4.20;;;;;;;15.99;65.34;99815.09;1674877;85;21630;-74
2022/06/17 01:41:28;;;;;;;5.17;4.50;;;;;;;16.07;65.34;99821.26;1675174;85;20983;-74
2022/06/17 01:44:12;;;;;;;4.60;3.95;;;;;;;16.14;65.23;99817.70;1625730;88;21385;-73
2022/06/17 01:46:41;;;;;;;10.60;5.33;;;;;;;16.18;65.07;99819.29;1693160;83;21565;-73
2022/06/17 01:49:17;;;;;;;6.17;4.42;;;;;;;15.89;65.91;99809.73;1711257;82;21014;-72
2022/06/17 01:51:56;;;;;;;6.03;5.53;;;;;;;15.65;66.71;99810.42;1711375;83;20999;-73
2022/06/17 01:54:29;;;;;;;8.58;5.00;;;;;;;15.58;66.87;99811.83;1701901;83;21585;-73
2022/06/17 01:56:59;;;;;;;8.08;5.28;;;;;;;15.65;66.48;99803.64;1701920;84;21568;-70
2022/06/17 01:59:31;;;;;;;5.17;4.72;;;;;;;15.75;66.17;99807.38;1701721;84;20949;-73
2022/06/17 02:02:00;;;;;;;5.47;4.90;;;;;;;15.84;65.91;99809.22;1706307;82;21044;-71
2022/06/17 02:04:32;;;;;;;5.40;4.30;;;;;;;15.96;65.56;99811.05;1683617;83;21013;-70
2022/06/17 02:07:13;;;;;;;8.70;5.72;;;;;;;16.10;65.11;99807.15;1701885;83;21019;-70
2022/06/17 02:09:40;;;;;;;6.25;4.75;;;;;;;16.22;64.79;99811.66;1688031;82;22532;-71
2022/06/17 02:12:08;;;;;;;9.33;4.87;;;;;;;16.37;64.47;99811.53;1662742;86;20908;-70
2022/06/17 02:14:35;;;;;;;7.22;4.72;;;;;;;16.45;64.18;99801.40;1710361;83;21021;-72
2022/06/17 02:17:11;;;;;;;9.03;5.17;;;;;;;16.52;63.66;99806.51;1682220;84;21701;-72
2022/06/17 02:19:44;;;;;;;5.83;4.97;;;;;;;16.59;63.60;99803.50;1712440;82;20937;-70
2022/06/17 02:22:24;;;;;;;9.70;4.75;;;;;;;16.65;63.51;99800.98;1723107;83;21082;-76
2022/06/17 02:24:55;;;;;;;6.40;3.67;;;;;;;16.60;63.68;99799.12;1704381;82;21077;-70
2022/06/17 02:27:21;;;;;;;4.25;3.85;;;;;;;16.50;63.80;99806.78;1710976;83;21019;-72
2022/06/17 02:29:48;;;;;;;6.60;4.08;;;;;;;16.41;64.07;99802.26;1720336;82;21553;-70
2022/06/17 02:32:15;;;;;;;4.33;3.37;;;;;;;16.34;64.35;99792.30;1699546;84;21548;-71
2022/06/17 02:34:53;;;;;;;7.15;4.03;;;;;;;16.30;64.56;99793.96;1650190;85;21905;-71
2022/06/17 02:37:20;;;;;;;4.45;3.92;;;;;;;16.27;64.67;99791.25;1647307;87;20941;-70
2022/06/17 02:39:49;;;;;;;6.83;3.60;;;;;;;16.22;64.81;99792.66;1644833;85;21112;-70
2022/06/17 02:42:31;;;;;;;7.12;5.15;;;;;;;16.19;65.06;99790.52;1647197;85;21664;-71
2022/06/17 02:45:02;;;;;;;5.47;4.85;;;;;;;16.17;65.13;99784.55;1646120;85;21013;-71
2022/06/17 02:47:30;;;;;;;6.45;4.60;;;;;;;16.17;65.22;99783.20;1692728;84;21296;-72
2022/06/17 02:49:56;;;;;;;7.75;4.70;;;;;;;16.18;65.29;99782.11;1694407;82;21043;-72
2022/06/17 02:52:37;;;;;;;7.12;5.95;;;;;;;16.23;65.28;99780.71;1732122;81;20984;-71
2022/06/17 02:55:09;;;;;;;5.45;4.30;;;;;;;16.29;65.15;99780.94;1701389;83;21003;-71
2022/06/17 02:57:36;;;;;;;6.58;4.85;;;;;;;16.33;65.14;99786.05;1719354;83;21039;-73
2022/06/17 03:00:19;;;;;;;9.05;5.40;;;;;;;16.34;65.19;99782.25;1703505;82;21249;-74
2022/06/17 03:02:51;;;;;;;6.30;5.30;;;;;;;16.38;65.12;99779.22;1720042;83;21035;-74
2022/06/17 03:05:25;;;;;;;7.20;5.53;;;;;;;16.45;64.99;99787.05;1732517;81;21087;-71
2022/06/17 03:07:52;;;;;;;8.05;5.35;;;;;;;16.53;64.66;99781.80;1722597;81;21075;-73
2022/06/17 03:10:29;;;;;;;7.92;5.78;;;;;;;16.65;64.28;99783.33;1715021;82;21043;-73
2022/06/17 03:13:09;;;;;;;6.53;5.35;;;;;;;16.76;63.76;99780.77;1746208;81;21504;-72
2022/06/17 03:15:39;;;;;;;9.68;6.55;;;;;;;16.84;63.52;99777.41;1743041;81;21028;-71
2022/06/17 03:18:05;;;;;;;7.33;5.87;;;;;;;16.93;63.05;99779.20;1701324;82;21204;-74
2022/06/17 03:20:38;;;;;;;7.45;5.67;;;;;;;17.02;62.72;99778.05;1734010;81;21521;-73
2022/06/17 03:23:17;;;;;;;14.73;7.28;;;;;;;17.10;62.53;99783.38;1744732;81;21063;-73
2022/06/17 03:26:06;;;;;;;12.53;6.25;;;;;;;17.14;62.52;99778.97;1720045;83;21161;-73
2022/06/17 03:28:40;;;;;;;11.18;5.87;;;;;;;17.18;62.29;99775.92;1719883;81;21516;-74
2022/06/17 03:31:11;;;;;;;10.72;6.05;;;;;;;17.20;62.43;99775.91;1741025;81;21043;-74
2022/06/17 03:33:43;;;;;;;14.07;6.15;;;;;;;17.21;62.25;99779.44;1746083;81;21162;-73
2022/06/17 03:36:17;;;;;;;11.15;6.55;;;;;;;17.26;62.32;99779.37;1719864;82;21017;-73
2022/06/17 03:38:53;;;;;;;10.68;5.80;;;;;;;17.32;62.11;99775.47;1708578;82;21246;-71
2022/06/17 03:41:49;;;;;;;15.30;6.45;;;;;;;17.38;61.90;99772.95;1707520;82;21082;-71
2022/06/17 03:44:18;;;;;;;7.72;6.50;;;;;;;17.46;61.73;99778.30;1725236;82;20997;-74
2022/06/17 03:46:53;;;;;;;7.22;5.85;;;;;;;17.51;61.45;99774.94;1702314;82;21505;-70
2022/06/17 03:49:45;;;;;;;26.52;15.65;;;;;;;17.57;61.27;99773.77;1672296;83;21095;-73
2022/06/17 03:52:39;;;;;;;16.15;7.55;;;;;;;17.62;61.03;99775.09;1728693;82;21107;-77
2022/06/17 03:55:18;;;;;;;9.95;7.40;;;;;;;17.69;60.89;99766.58;1731770;82;20979;-70
2022/06/17 03:57:48;;;;;;;11.22;6.60;;;;;;;17.77;60.56;99768.07;1717463;82;21003;-72
2022/06/17 04:00:33;;;;;;;20.08;5.83;;;;;;;17.82;60.28;99764.47;1709898;82;21017;-70
2022/06/17 04:03:00;;;;;;;11.30;6.62;;;;;;;17.87;60.12;99765.75;1714246;82;21149;-71
2022/06/17 04:05:28;;;;;;;15.85;7.20;;;;;;;17.96;59.89;99768.60;1701617;83;21134;-70
2022/06/17 04:07:55;;;;;;;11.97;6.47;;;;;;;18.02;59.74;99770.95;1701891;84;21197;-73
2022/06/17 04:10:25;;;;;;;12.93;6.05;;;;;;;18.09;59.51;99772.73;1709908;82;21036;-74
2022/06/17 04:12:53;;;;;;;7.22;5.42;;;;;;;18.15;59.42;99771.55;1712460;82;21005;-70
2022/06/17 04:15:54;;;;;;;9.35;5.30;;;;;;;18.23;59.35;99771.41;1699380;84;21128;-74
2022/06/17 04:18:20;;;;;;;7.45;6.17;;;;;;;18.32;59.04;99770.97;1705330;82;21059;-73
2022/06/17 04:20:56;;;;;;;7.65;5.95;;;;;;;18.42;58.92;99773.52;1727217;82;20944;-71
2022/06/17 04:23:28;;;;;;;15.28;5.58;;;;;;;18.49;58.80;99767.70;1725860;82;21004;-70
2022/06/17 04:26:11;;;;;;;16.67;6.72;;;;;;;18.57;58.47;99771.11;1701271;83;21036;-73
2022/06/17 04:28:50;;;;;;;14.07;6.75;;;;;;;18.65;58.27;99767.71;1674961;85;21091;-72
2022/06/17 04:31:22;;;;;;;11.88;6.22;;;;;;;18.72;57.95;99772.20;1706140;82;21223;-72
2022/06/17 04:33:54;;;;;;;14.80;5.35;;;;;;;18.81;57.68;99777.75;1701383;83;21047;-74
2022/06/17 04:36:31;;;;;;;8.23;5.37;;;;;;;18.90;57.27;99768.56;1701634;83;21032;-73
2022/06/17 04:39:02;;;;;;;7.03;5.75;;;;;;;18.99;56.78;99771.42;1701689;84;20985;-72
2022/06/17 04:41:43;;;;;;;15.35;6.85;;;;;;;19.06;56.11;99769.89;1684246;82;21001;-72
2022/06/17 04:44:18;;;;;;;58.55;50.17;;;;;;;19.17;55.94;99765.04;1701008;83;21201;-72
2022/06/17 04:47:05;;;;;;;19.20;9.28;;;;;;;19.25;55.90;99764.31;1701298;83;21008;-75
2022/06/17 04:49:55;;;;;;;13.05;6.05;;;;;;;19.34;55.85;99761.11;1705938;82;21715;-72
2022/06/17 04:52:41;;;;;;;15.68;6.87;;;;;;;19.43;55.98;99757.10;1719136;82;20993;-71
2022/06/17 04:55:37;;;;;;;10.05;6.42;;;;;;;19.52;55.77;99760.75;1686947;84;21021;-72
2022/06/17 04:58:12;;;;;;;11.22;6.03;;;;;;;19.59;55.37;99759.78;1691751;83;21217;-71
2022/06/17 05:00:43;;;;;;;12.95;5.62;;;;;;;19.67;54.93;99759.05;1709436;82;21566;-72
2022/06/17 05:03:10;;;;;;;18.55;6.90;;;;;;;19.72;54.46;99760.84;1713603;82;21521;-71
2022/06/17 05:05:41;;;;;;;7.53;5.67;;;;;;;19.79;54.24;99756.59;1706694;82;21095;-71
2022/06/17 05:08:35;;;;;;;13.20;5.92;;;;;;;19.86;53.74;99759.68;1701841;82;21482;-71
2022/06/17 05:11:10;;;;;;;9.83;5.62;;;;;;;19.91;53.49;99760.92;1723150;82;20949;-71
2022/06/17 05:14:03;;;;;;;10.15;5.60;;;;;;;19.96;53.16;99760.00;1721498;82;21549;-74
2022/06/17 05:16:31;;;;;;;13.43;5.67;;;;;;;20.00;53.27;99760.98;1695316;83;20968;-74
2022/06/17 05:18:58;;;;;;;10.38;4.90;;;;;;;20.06;52.73;99761.12;1701205;83;20929;-71
2022/06/17 05:21:25;;;;;;;7.35;5.60;;;;;;;20.12;52.38;99760.44;1726552;82;21043;-71
2022/06/17 05:23:56;;;;;;;9.65;5.45;;;;;;;20.20;52.24;99761.05;1714444;82;21105;-71
2022/06/17 05:26:24;;;;;;;6.83;4.80;;;;;;;20.29;51.88;99750.97;1713130;83;21478;-71
2022/06/17 05:28:50;;;;;;;11.88;5.33;;;;;;;20.37;51.15;99747.54;1713259;83;21032;-72
2022/06/17 05:31:19;;;;;;;6.72;4.35;;;;;;;20.46;50.84;99740.19;1706108;82;21526;-75
2022/06/17 05:33:48;;;;;;;12.37;4.62;;;;;;;20.55;50.18;99745.69;1701367;83;21509;-72
2022/06/17 05:36:15;;;;;;;6.47;3.47;;;;;;;20.66;49.66;99745.67;1701640;83;21828;-77
2022/06/17 05:38:44;;;;;;;5.83;3.15;;;;;;;20.75;49.09;99739.68;1701254;82;21575;-73
2022/06/17 05:41:17;;;;;;;7.15;3.50;;;;;;;20.84;48.05;99742.69;1722677;82;20993;-77
2022/06/17 05:43:45;;;;;;;7.50;3.52;;;;;;;20.92;47.43;99741.66;1724050;82;21033;-73
2022/06/17 05:46:17;;;;;;;5.62;3.65;;;;;;;21.01;47.49;99737.01;1722859;82;21148;-72
2022/06/17 05:48:45;;;;;;;3.08;2.83;;;;;;;21.10;47.17;99744.70;1721679;82;21153;-73
2022/06/17 05:51:17;;;;;;;4.10;3.17;;;;;;;21.19;46.90;99747.73;1720759;83;21006;-72
2022/06/17 05:53:48;;;;;;;4.75;3.05;;;;;;;21.27;45.95;99742.02;1724090;82;20973;-71
2022/06/17 05:56:28;;;;;;;5.35;3.40;;;;;;;21.31;46.19;99749.27;1656837;83;21068;-72
2022/06/17 05:58:55;;;;;;;12.20;3.85;;;;;;;21.37;46.42;99750.49;1701853;83;21357;-75
2022/06/17 06:01:22;;;;;;;6.17;3.90;;;;;;;21.39;46.87;99742.19;1700572;83;21416;-72
2022/06/17 06:03:49;;;;;;;9.05;3.90;;;;;;;21.43;46.98;99735.54;1720569;82;21007;-72
2022/06/17 06:06:16;;;;;;;8.75;4.12;;;;;;;21.49;47.52;99750.09;1732684;82;21087;-74
2022/06/17 06:08:44;;;;;;;10.80;4.12;;;;;;;21.56;47.68;99744.16;1706621;81;21068;-70
2022/06/17 06:11:13;;;;;;;9.58;4.47;;;;;;;21.65;47.05;99744.40;1701758;83;21019;-71
2022/06/17 06:13:42;;;;;;;6.47;3.70;;;;;;;21.71;47.32;99741.75;1722827;82;21132;-72
2022/06/17 06:16:13;;;;;;;8.38;4.20;;;;;;;21.78;46.69;99740.44;1691563;83;20960;-73
2022/06/17 06:18:45;;;;;;;5.12;3.60;;;;;;;21.84;46.59;99730.94;1702039;84;21091;-70
2022/06/17 06:21:13;;;;;;;7.30;3.60;;;;;;;21.89;46.71;99736.25;1709572;82;20993;-73
2022/06/17 06:23:43;;;;;;;7.70;3.33;;;;;;;22.00;45.91;99729.36;1708260;82;21102;-71
2022/06/17 06:26:15;;;;;;;3.75;2.83;;;;;;;22.06;44.20;99733.55;1701870;84;21136;-70
2022/06/17 06:28:44;;;;;;;4.33;3.25;;;;;;;22.11;43.12;99733.34;1701646;83;20988;-71
2022/06/17 06:31:35;;;;;;;4.30;3.60;;;;;;;22.17;42.71;99738.34;1721219;82;20958;-71
2022/06/17 06:34:03;;;;;;;7.15;3.22;;;;;;;22.23;43.05;99736.80;1703246;81;21012;-70
2022/06/17 06:36:33;;;;;;;4.92;3.55;;;;;;;22.27;43.24;99733.08;1705643;82;21485;-70
2022/06/17 06:39:00;;;;;;;5.33;2.67;;;;;;;22.33;42.50;99726.30;1717518;82;21146;-72
2022/06/17 06:41:27;;;;;;;3.17;2.50;;;;;;;22.41;42.55;99730.95;1747583;82;20953;-72
2022/06/17 06:43:55;;;;;;;3.22;2.80;;;;;;;22.47;42.44;99724.73;1716926;82;21044;-71
2022/06/17 06:46:40;;;;;;;3.67;3.00;;;;;;;22.57;41.91;99733.97;1725729;82;21076;-70
2022/06/17 06:49:08;;;;;;;6.95;3.25;;;;;;;22.65;41.66;99726.83;1714051;82;21040;-72
2022/06/17 06:51:35;;;;;;;3.70;2.70;;;;;;;22.69;41.67;99729.95;1688717;83;21307;-70
2022/06/17 06:54:04;;;;;;;4.67;2.15;;;;;;;22.78;41.09;99732.12;1712047;82;21529;-72
2022/06/17 06:56:31;;;;;;;5.42;2.55;;;;;;;22.86;39.93;99726.37;1652808;82;21536;-74
2022/06/17 06:58:57;;;;;;;4.40;3.30;;;;;;;22.87;40.20;99720.56;1712803;83;21009;-72
2022/06/17 07:01:23;;;;;;;5.58;2.77;;;;;;;22.90;40.99;99724.01;1712690;83;21135;-74
2022/06/17 07:03:50;;;;;;;4.10;2.62;;;;;;;22.94;41.08;99723.58;1711826;83;20975;-74
2022/06/17 07:06:18;;;;;;;4.58;2.67;;;;;;;23.00;40.56;99718.72;1748208;82;21032;-72
2022/06/17 07:08:46;;;;;;;4.40;2.47;;;;;;;23.07;39.95;99712.12;1735268;81;20935;-74
2022/06/17 07:11:16;;;;;;;4.67;2.90;;;;;;;23.11;39.10;99719.14;1716616;82;21019;-72
2022/06/17 07:13:43;;;;;;;4.92;2.22;;;;;;;23.12;39.04;99713.30;1734154;82;20983;-72
2022/06/17 07:16:11;;;;;;;4.15;2.60;;;;;;;23.21;38.81;99718.76;1718811;82;21160;-74
2022/06/17 07:18:39;;;;;;;4.97;3.10;;;;;;;23.31;37.79;99715.62;1717028;83;21109;-71
2022/06/17 07:21:11;;;;;;;4.47;2.35;;;;;;;23.41;37.55;99716.58;1716410;82;21085;-74
2022/06/17 07:23:42;;;;;;;8.73;3.03;;;;;;;23.51;37.55;99727.76;1731608;82;20992;-73
2022/06/17 07:26:19;;;;;;;3.50;2.05;;;;;;;23.61;37.35;99725.98;1728538;82;21598;-71
2022/06/17 07:28:47;;;;;;;2.98;1.95;;;;;;;23.67;36.37;99739.19;1717135;83;21259;-73
2022/06/17 07:31:15;;;;;;;1.92;1.70;;;;;;;23.65;35.48;99711.81;1732626;81;21018;-73
2022/06/17 07:33:42;;;;;;;3.95;1.70;;;;;;;23.66;35.61;99728.53;1741533;82;21052;-74
2022/06/17 07:39:53;;;;;;;2.37;1.60;;;;;;;23.63;35.81;99721.78;1692691;83;21026;-74
2022/06/17 07:41:30;;;;;;;2.10;1.92;;;;;;;23.54;35.97;99725.17;1707236;82;21169;-73
2022/06/17 07:43:56;;;;;;;5.45;1.90;;;;;;;23.51;35.08;99729.13;1718327;82;21011;-74
2022/06/17 07:46:24;;;;;;;2.17;1.90;;;;;;;23.51;35.07;99723.08;1723679;82;32683;-75
2022/06/17 07:48:51;;;;;;;6.97;2.30;;;;;;;23.56;35.07;99715.20;1702083;82;20983;-77
2022/06/17 07:51:18;;;;;;;1.95;1.75;;;;;;;23.61;35.29;99721.30;1719594;82;21491;-77
2022/06/17 07:53:44;;;;;;;4.17;1.82;;;;;;;23.67;35.07;99730.14;1732348;82;21224;-77
2022/06/17 07:56:13;;;;;;;4.42;2.10;;;;;;;23.76;34.86;99739.92;1715807;82;20989;-76
2022/06/17 07:58:41;;;;;;;3.27;2.50;;;;;;;23.84;34.51;99728.61;1724632;82;21368;-75
2022/06/17 08:01:07;;;;;;;1.80;1.45;;;;;;;23.89;34.29;99732.53;1700447;82;21083;-75
2022/06/17 08:03:34;;;;;;;4.67;2.30;;;;;;;23.95;33.96;99729.00;1705207;82;21080;-78
2022/06/17 08:06:02;;;;;;;2.05;1.85;;;;;;;23.90;34.22;99722.58;1698086;84;21547;-79
2022/06/17 08:08:30;;;;;;;2.10;1.90;;;;;;;23.84;34.68;99725.86;1703515;83;21015;-77
2022/06/17 08:10:58;;;;;;;1.85;1.55;;;;;;;23.90;34.40;99719.84;1702918;83;21131;-77
2022/06/17 08:13:26;;;;;;;2.87;1.62;;;;;;;23.99;33.61;99721.13;1715127;82;21072;-78
2022/06/17 08:15:57;;;;;;;4.75;1.95;;;;;;;24.02;33.10;99711.41;1722597;83;21038;-79
2022/06/17 08:18:24;;;;;;;2.50;1.87;;;;;;;24.05;33.13;99716.22;1724558;82;21136;-76
2022/06/17 08:20:51;;;;;;;2.33;1.62;;;;;;;24.04;33.23;99715.41;1706662;82;21059;-76
2022/06/17 08:23:17;;;;;;;7.05;2.47;;;;;;;24.07;33.50;99714.75;1721968;82;21009;-78
2022/06/17 08:25:45;;;;;;;2.02;1.75;;;;;;;24.09;33.54;99711.65;1726816;82;21546;-76
2022/06/17 08:28:13;;;;;;;1.98;1.77;;;;;;;24.17;33.61;99714.94;1721597;80;21025;-78
2022/06/17 08:30:46;;;;;;;2.98;1.50;;;;;;;24.29;33.02;99725.94;1712895;83;21114;-78
2022/06/17 08:33:13;;;;;;;4.60;1.67;;;;;;;24.37;32.09;99736.03;1699422;82;21024;-78
2022/06/17 08:35:45;;;;;;;1.98;1.70;;;;;;;24.39;32.20;99721.39;1714855;82;21035;-78
2022/06/17 08:38:28;;;;;;;7.08;2.60;;;;;;;24.42;31.67;99726.19;1739861;82;21592;-77
2022/06/17 08:40:58;;;;;;;4.03;1.57;;;;;;;24.46;31.99;99729.09;1699207;84;20987;-77
2022/06/17 08:44:09;;;;;;;3.47;1.85;;;;;;;24.48;31.80;99738.59;1709320;82;21265;-79
2022/06/17 08:46:44;;;;;;;2.22;1.80;;;;;;;24.43;31.65;99720.94;1711760;82;21061;-79
2022/06/17 08:49:22;;;;;;;2.72;1.47;;;;;;;24.42;31.61;99728.14;1711290;82;21060;-79
2022/06/17 08:52:16;;;;;;;4.25;1.98;;;;;;;24.42;31.97;99726.19;1684083;84;21117;-77
2022/06/17 08:55:29;;;;;;;4.15;2.15;;;;;;;24.46;32.31;99715.34;1679769;83;21159;-77
2022/06/17 08:58:36;;;;;;;4.67;2.35;;;;;;;24.46;32.39;99722.98;1687915;84;21803;-80
2022/06/17 09:01:21;;;;;;;1.62;1.50;;;;;;;24.47;32.47;99708.10;1710484;82;21009;-78
2022/06/17 09:04:14;;;;;;;4.03;1.70;;;;;;;24.46;32.42;99718.86;1699272;82;21463;-77
2022/06/17 09:07:18;;;;;;;3.05;1.70;;;;;;;24.42;32.55;99711.64;1715725;81;21031;-79
2022/06/17 09:09:57;;;;;;;2.77;2.05;;;;;;;24.40;32.87;99708.45;1726807;82;20988;-77
2022/06/17 09:12:47;;;;;;;2.22;1.57;;;;;;;24.42;33.03;99715.20;1711998;82;21892;-75
2022/06/17 09:15:41;;;;;;;7.47;1.92;;;;;;;24.49;33.14;99703.64;1711122;83;21039;-74
2022/06/17 09:18:19;;;;;;;4.80;2.25;;;;;;;24.66;32.98;99704.23;1713149;82;21109;-77
2022/06/17 09:20:48;;;;;;;2.27;1.75;;;;;;;24.91;32.20;99707.81;1703501;82;21108;-77
2022/06/17 09:23:19;;;;;;;4.85;2.72;;;;;;;25.07;31.88;99687.28;1702940;83;21046;-77
2022/06/17 09:25:47;;;;;;;5.40;1.77;;;;;;;25.19;31.93;99693.56;1711105;82;21075;-76
2022/06/17 09:28:37;;;;;;;6.97;1.72;;;;;;;25.28;32.05;99694.80;1711435;82;21014;-76
2022/06/17 09:31:14;;;;;;;1.62;1.52;;;;;;;25.33;31.46;99695.94;1721643;80;21021;-77
2022/06/17 09:34:08;;;;;;;6.90;2.00;;;;;;;25.42;30.80;99688.34;1721131;82;21051;-77
2022/06/17 09:36:53;;;;;;;6.22;1.90;;;;;;;25.43;29.77;99690.52;1713805;82;21181;-74
2022/06/17 09:39:31;;;;;;;7.28;2.52;;;;;;;25.46;30.62;99693.41;1705114;84;21215;-76
2022/06/17 09:42:04;;;;;;;3.77;2.02;;;;;;;25.54;30.85;99684.76;1676472;83;21534;-76
2022/06/17 09:44:39;;;;;;;3.00;2.15;;;;;;;25.63;30.60;99692.33;1695844;82;26033;-75
2022/06/17 09:47:14;;;;;;;8.95;2.27;;;;;;;25.69;30.82;99690.13;1721620;82;21008;-75
2022/06/17 09:49:48;;;;;;;3.25;1.92;;;;;;;25.64;31.18;99680.16;1733154;82;21005;-77
2022/06/17 09:52:28;;;;;;;2.45;1.77;;;;;;;25.59;31.48;99675.70;1738274;82;21187;-76
2022/06/17 09:55:06;;;;;;;10.10;1.55;;;;;;;25.66;30.77;99690.84;1736082;82;20969;-77
2022/06/17 09:57:56;;;;;;;1.55;1.45;;;;;;;25.64;30.25;99692.56;1720312;82;21067;-77
2022/06/17 10:00:26;;;;;;;5.08;1.87;;;;;;;25.61;29.64;99683.63;1730689;82;21486;-77
2022/06/17 10:03:10;;;;;;;4.30;3.10;;;;;;;25.50;29.52;99678.34;1715574;82;21513;-77
2022/06/17 10:05:42;;;;;;;5.33;2.25;;;;;;;25.55;29.77;99678.13;1679843;85;21842;-78
2022/06/17 10:08:48;;;;;;;2.02;1.82;;;;;;;25.68;29.95;99681.06;1687348;82;20967;-78
2022/06/17 10:11:26;;;;;;;8.03;1.95;;;;;;;25.80;30.16;99677.47;1711585;82;21117;-76
2022/06/17 10:14:24;;;;;;;14.53;2.10;;;;;;;25.88;29.67;99675.93;1699376;82;20999;-84
2022/06/17 10:20:21;;;;;;;4.40;1.60;;;;;;;26.00;30.28;99667.58;1690939;83;21221;-90
2022/06/17 10:23:03;;;;;;;2.35;1.55;;;;;;;26.03;30.31;99671.60;1703277;82;21531;-82
2022/06/17 10:26:00;;;;;;;1.87;1.67;;;;;;;25.93;30.36;99667.41;1712179;83;21028;-82
2022/06/17 10:28:45;;;;;;;6.55;2.17;;;;;;;25.83;30.56;99669.29;1718011;82;21568;-79
2022/06/17 10:31:29;;;;;;;2.50;2.10;;;;;;;25.68;30.43;99668.66;1711839;82;21090;-86
2022/06/17 10:33:56;;;;;;;4.12;1.85;;;;;;;25.69;30.19;99662.58;1712645;82;21570;-81
2022/06/17 10:36:23;;;;;;;2.25;1.75;;;;;;;25.81;30.04;99659.19;1710364;83;20897;-84
2022/06/17 10:38:50;;;;;;;3.42;2.12;;;;;;;25.92;29.63;99666.37;1715528;83;21049;-82
2022/06/17 10:41:17;;;;;;;3.17;2.47;;;;;;;25.80;29.31;99660.93;1732899;82;21068;-74
2022/06/17 10:43:48;;;;;;;2.62;1.82;;;;;;;25.73;29.55;99657.97;1739337;82;21266;-74
2022/06/17 10:46:25;;;;;;;2.70;2.05;;;;;;;25.69;29.49;99661.20;1717165;83;21924;-77
2022/06/17 10:49:18;;;;;;;8.53;1.55;;;;;;;25.73;29.45;99660.15;1716120;83;21059;-74
2022/06/17 10:51:45;;;;;;;4.90;1.52;;;;;;;25.71;29.63;99654.17;1719574;82;21600;-76
2022/06/17 10:54:17;;;;;;;4.20;1.72;;;;;;;25.63;29.97;99658.47;1690448;83;21070;-78
2022/06/17 10:57:05;;;;;;;4.90;2.58;;;;;;;25.50;30.07;99646.11;1718719;83;20933;-78
2022/06/17 10:59:36;;;;;;;2.70;2.50;;;;;;;25.41;29.96;99639.14;1689851;83;21233;-77
2022/06/17 11:02:04;;;;;;;5.25;2.27;;;;;;;25.39;30.12;99648.31;1717268;82;21067;-78
2022/06/17 11:04:34;;;;;;;3.60;1.70;;;;;;;25.37;30.21;99645.13;1718303;82;21533;-77
2022/06/17 11:07:33;;;;;;;2.83;1.60;;;;;;;25.39;30.29;99641.42;1719945;83;21052;-81
2022/06/17 11:10:19;;;;;;;4.00;1.75;;;;;;;25.44;30.38;99647.50;1713747;83;21055;-76
2022/06/17 11:13:08;;;;;;;2.77;2.00;;;;;;;25.54;30.30;99643.44;1719856;83;21251;-83
2022/06/17 11:15:54;;;;;;;2.80;1.55;;;;;;;25.61;29.98;99644.45;1693487;83;21578;-75
2022/06/17 11:18:30;;;;;;;1.92;1.50;;;;;;;25.70;30.13;99658.69;1716089;82;21028;-79
2022/06/17 11:21:05;;;;;;;2.85;1.65;;;;;;;25.72;30.30;99647.52;1717342;83;21042;-73
2022/06/17 11:23:38;;;;;;;6.75;1.77;;;;;;;25.73;30.24;99656.59;1717507;83;21097;-75
2022/06/17 11:26:24;;;;;;;2.35;1.20;;;;;;;25.73;30.30;99643.62;1688973;84;21752;-75
2022/06/17 11:29:01;;;;;;;2.50;1.37;;;;;;;25.84;30.32;99641.97;1688548;85;21083;-76
2022/06/17 11:31:35;;;;;;;3.75;2.27;;;;;;;25.91;30.01;99638.00;1694919;82;21443;-72
2022/06/17 11:34:17;;;;;;;2.87;1.70;;;;;;;25.95;30.11;99632.00;1746199;82;21546;-75
2022/06/17 11:37:05;;;;;;;2.12;1.50;;;;;;;26.00;30.19;99636.45;1748676;82;21010;-80
2022/06/17 11:39:34;;;;;;;1.60;1.45;;;;;;;26.05;30.31;99634.81;1733641;82;21266;-78
2022/06/17 11:42:06;;;;;;;6.85;2.20;;;;;;;26.10;31.08;99641.45;1720535;81;21007;-77
2022/06/17 11:44:32;;;;;;;4.12;2.45;;;;;;;26.05;30.89;99645.84;1714844;83;21125;-78
2022/06/17 11:47:02;;;;;;;3.87;1.90;;;;;;;25.99;31.02;99637.63;1688470;83;21098;-76
2022/06/17 11:49:38;;;;;;;3.37;1.90;;;;;;;25.92;31.10;99634.67;1717193;83;21007;-79
2022/06/17 11:52:08;;;;;;;2.60;1.85;;;;;;;25.89;31.18;99628.50;1717081;83;21149;-78
2022/06/17 11:54:48;;;;;;;1.67;1.57;;;;;;;25.94;31.05;99628.25;1716975;83;20983;-73
2022/06/17 11:57:21;;;;;;;2.08;1.87;;;;;;;26.01;31.19;99631.98;1717130;83;21553;-74
2022/06/17 11:59:53;;;;;;;2.00;1.80;;;;;;;26.14;31.30;99631.31;1716828;83;21012;-74
2022/06/17 12:02:19;;;;;;;2.72;1.82;;;;;;;26.26;31.02;99635.41;1716309;82;21110;-78
2022/06/17 12:05:11;;;;;;;6.17;2.40;;;;;;;26.39;30.67;99634.73;1687457;83;21079;-78
2022/06/17 12:08:04;;;;;;;2.22;2.02;;;;;;;26.51;30.49;99622.81;1715189;83;20944;-79
2022/06/17 12:10:49;;;;;;;2.77;1.45;;;;;;;26.53;30.34;99624.04;1717720;83;21023;-86
2022/06/17 12:13:41;;;;;;;3.08;1.60;;;;;;;26.49;30.59;99632.81;1716463;82;21500;-83
2022/06/17 12:16:16;;;;;;;2.58;2.08;;;;;;;26.39;30.35;99616.23;1716219;82;21589;-77